• Join FlightAware (Why Join?)
  • Login
  • US Flag 
11:05PM EDT


 

Airport Tracker/Info


-or-


 

Live Flight TrackerFlight Track Log ✈ CSN6874 ✈ 25-Aug-2013 ✈ ZWKC / KCA - ZWWW / URC

Flight Track Log - Related Links

Times and Time Zones

All times are in EDT time to prevent confusion due to time zone crossing. See the CSN6874 flight status page for this flight to view local times or setup timezone preferences in your user account.

Time Position Orientation Groundspeed Altitude Reporting Facility
EDT Latitude Longitude Course Direction KTS MPH feet Rate Location/Type
10:07PM 41.8314 83.2036 55° Northeast  Level Estimated
10:08PM 41.9444 83.4209 55° Northeast  Level Estimated
10:09PM 42.0569 83.6391 55° Northeast  Level Estimated
10:10PM 42.1691 83.8580 55° Northeast  Level Estimated
10:11PM 42.2808 84.0777 55° Northeast  Level Estimated
10:12PM 42.3921 84.2981 56° Northeast  Level Estimated
10:13PM 42.5030 84.5194 56° Northeast  Level Estimated
10:14PM 42.6134 84.7414 56° Northeast  Level Estimated
10:15PM 42.7234 84.9642 56° Northeast  Level Estimated
10:16PM 42.8330 85.1878 56° Northeast  Level Estimated
10:17PM 42.9422 85.4122 56° Northeast  Level Estimated
10:18PM 43.0509 85.6374 56° Northeast  Level Estimated
10:19PM 43.1591 85.8634 57° Northeast  Level Estimated
10:20PM 43.2669 86.0902 57° Northeast  Level Estimated
10:21PM 43.3743 86.3178 57° Northeast  Level Estimated
10:22PM 43.4812 86.5462 57° Northeast  Level Estimated
10:23PM 43.5877 86.7755 57° Northeast  Level Estimated
10:24PM 43.6937 87.0055 57° Northeast  Level Estimated
10:25PM 43.7992 87.2363 58° Northeast  Level Estimated
10:26PM 43.9043 87.4680 58° Northeast  Level Estimated
10:27PM 43.9071 87.4742 58° Northeast  Level Estimated
10:28PM 43.9071 87.4742 144° Southeast  Level Estimated
10:29PM 43.9071 87.4742 144° Southeast  Level Estimated
10:30PM 43.9071 87.4742 144° Southeast  Level Estimated
10:31PM 43.9071 87.4742 144° Southeast  Level Estimated
10:32PM 43.9071 87.4742 144° Southeast  Level Estimated
10:33PM 43.9071 87.4742 144° Southeast  Level Estimated
10:34PM 43.9071 87.4742 144° Southeast  Level Estimated
10:35PM 43.9071 87.4742 144° Southeast  Level Estimated
10:36PM 43.9071 87.4742 144° Southeast  Level Estimated
10:37PM 43.9071 87.4742 144° Southeast  Level Estimated
10:38PM 43.9071 87.4742 144° Southeast  Level Estimated
10:39PM 43.9071 87.4742 144° Southeast  Level Estimated
10:40PM 43.9071 87.4742 144° Southeast  Level Estimated
10:41PM 43.9071 87.4742 144° Southeast  Level Estimated
10:42PM 43.9071 87.4742 144° Southeast  Level Estimated